createdAt,value
2023-02-19T00:00:32.931Z,7.93
2023-02-19T00:01:32.923Z,7.93
2023-02-19T00:02:32.932Z,7.94
2023-02-19T00:03:32.970Z,7.95
2023-02-19T00:04:32.918Z,7.97
2023-02-19T00:05:32.895Z,7.98
2023-02-19T00:06:32.872Z,7.98
2023-02-19T00:07:32.862Z,7.98
2023-02-19T00:08:32.862Z,7.98
2023-02-19T00:09:32.862Z,7.97
2023-02-19T00:10:32.821Z,7.97
2023-02-19T00:11:32.826Z,7.97
2023-02-19T00:12:32.828Z,7.98
2023-02-19T00:13:32.796Z,7.99
2023-02-19T00:14:32.782Z,8.00
2023-02-19T00:15:32.886Z,8.00
2023-02-19T00:16:32.785Z,7.99
2023-02-19T00:17:32.743Z,7.98
2023-02-19T00:18:32.741Z,7.97
2023-02-19T00:19:32.747Z,7.96
2023-02-19T00:20:32.716Z,7.95
2023-02-19T00:21:32.709Z,7.95
2023-02-19T00:22:32.754Z,7.95
2023-02-19T00:23:32.705Z,7.94
2023-02-19T00:24:32.679Z,7.94
2023-02-19T00:25:32.686Z,7.94
2023-02-19T00:26:32.657Z,7.93
2023-02-19T00:27:32.680Z,7.92
2023-02-19T00:28:32.642Z,7.91
2023-02-19T00:29:32.625Z,7.90
2023-02-19T00:30:32.656Z,7.90
2023-02-19T00:31:33.428Z,7.90
2023-02-19T00:32:32.619Z,7.90
2023-02-19T00:33:32.634Z,7.91
2023-02-19T00:34:32.581Z,7.92
2023-02-19T00:35:32.573Z,7.92
2023-02-19T00:36:32.578Z,7.93
2023-02-19T00:37:32.589Z,7.94
2023-02-19T00:38:32.543Z,7.94
2023-02-19T00:39:32.547Z,7.93
2023-02-19T00:40:32.519Z,7.92
2023-02-19T00:41:32.524Z,7.93
2023-02-19T00:42:32.524Z,7.94
2023-02-19T00:43:32.492Z,7.95
2023-02-19T00:44:32.525Z,7.95
2023-02-19T00:45:32.474Z,7.95
2023-02-19T00:46:32.507Z,7.96
2023-02-19T00:47:32.471Z,7.96
2023-02-19T00:48:32.535Z,7.96
2023-02-19T00:49:32.447Z,7.95
2023-02-19T00:50:32.422Z,7.94
2023-02-19T00:51:32.418Z,7.94
2023-02-19T00:52:32.418Z,7.94
2023-02-19T00:53:32.400Z,7.94
2023-02-19T00:54:32.405Z,7.96
2023-02-19T00:55:32.379Z,7.97
2023-02-19T00:56:32.365Z,7.98
2023-02-19T00:57:32.393Z,7.97
2023-02-19T00:58:32.357Z,7.96
2023-02-19T00:59:32.360Z,7.95
2023-02-19T01:00:32.322Z,7.94
2023-02-19T01:01:32.357Z,7.93
2023-02-19T01:02:32.317Z,7.93
2023-02-19T01:03:32.291Z,7.92
2023-02-19T01:04:32.372Z,7.92
2023-02-19T01:05:32.274Z,7.92
2023-02-19T01:06:32.272Z,7.91
2023-02-19T01:07:32.276Z,7.90
2023-02-19T01:08:32.269Z,7.89
2023-02-19T01:09:32.257Z,7.89
2023-02-19T01:10:32.230Z,7.88
2023-02-19T01:11:32.226Z,7.88
2023-02-19T01:12:32.194Z,7.89
2023-02-19T01:13:32.202Z,7.89
2023-02-19T01:14:32.174Z,7.89
2023-02-19T01:15:32.172Z,7.89
2023-02-19T01:16:32.178Z,7.89
2023-02-19T01:17:32.187Z,7.89
2023-02-19T01:18:32.197Z,7.89
2023-02-19T01:19:32.126Z,7.89
2023-02-19T01:20:32.124Z,7.88
2023-02-19T01:21:32.106Z,7.87
2023-02-19T01:22:32.093Z,7.88
2023-02-19T01:23:32.089Z,7.88
2023-02-19T01:24:32.104Z,7.88
2023-02-19T01:25:32.062Z,7.87
2023-02-19T01:26:32.053Z,7.86
2023-02-19T01:27:32.047Z,7.84
2023-02-19T01:28:32.040Z,7.82
2023-02-19T01:29:32.044Z,7.80
2023-02-19T01:30:32.129Z,7.80
2023-02-19T01:31:32.086Z,7.80
2023-02-19T01:32:32.005Z,7.80
2023-02-19T01:33:31.978Z,7.81
2023-02-19T01:34:31.998Z,7.82
2023-02-19T01:35:31.967Z,7.81
2023-02-19T01:36:31.956Z,7.81
2023-02-19T01:37:31.939Z,7.81
2023-02-19T01:38:31.959Z,7.81
2023-02-19T01:39:31.953Z,7.81
2023-02-19T01:40:31.924Z,7.80
2023-02-19T01:41:31.917Z,7.80
2023-02-19T01:42:31.918Z,7.79
2023-02-19T01:43:31.882Z,7.79
2023-02-19T01:44:31.894Z,7.78
2023-02-19T01:45:31.891Z,7.77
2023-02-19T01:46:31.916Z,7.76
2023-02-19T01:47:31.852Z,7.76
2023-02-19T01:48:31.851Z,7.75
2023-02-19T01:49:31.839Z,7.74
2023-02-19T01:50:31.852Z,7.73
2023-02-19T01:51:31.841Z,7.73
2023-02-19T01:52:31.827Z,7.73
2023-02-19T01:53:31.793Z,7.72
2023-02-19T01:54:31.805Z,7.72
2023-02-19T01:55:31.759Z,7.71
2023-02-19T01:56:31.762Z,7.71
2023-02-19T01:57:31.744Z,7.71
2023-02-19T01:58:31.758Z,7.70
2023-02-19T01:59:31.730Z,7.69
2023-02-19T02:02:26.985Z,8.81
2023-02-19T02:03:28.355Z,8.31
2023-02-19T02:04:27.953Z,7.99
2023-02-19T02:05:27.916Z,7.81
2023-02-19T02:06:27.927Z,7.70
2023-02-19T02:07:27.898Z,7.64
2023-02-19T02:08:27.876Z,7.60
2023-02-19T02:09:27.916Z,7.58
2023-02-19T02:10:27.952Z,7.56
2023-02-19T02:11:27.926Z,7.55
2023-02-19T02:12:27.887Z,7.55
2023-02-19T02:13:27.846Z,7.54
2023-02-19T02:14:27.846Z,7.53
2023-02-19T02:15:27.855Z,7.52
2023-02-19T02:16:27.841Z,7.51
2023-02-19T02:17:27.822Z,7.49
2023-02-19T02:18:27.801Z,7.48
2023-02-19T02:19:27.826Z,7.47
2023-02-19T02:20:27.766Z,7.46
2023-02-19T02:21:27.774Z,7.46
2023-02-19T02:22:27.796Z,7.45
2023-02-19T02:23:27.751Z,7.44
2023-02-19T02:24:27.811Z,7.42
2023-02-19T02:25:27.723Z,7.41
2023-02-19T02:26:27.750Z,7.38
2023-02-19T02:27:27.707Z,7.36
2023-02-19T02:28:27.744Z,7.34
2023-02-19T02:29:27.732Z,7.32
2023-02-19T02:30:27.740Z,7.29
2023-02-19T02:31:27.757Z,7.27
2023-02-19T02:32:34.152Z,7.26
2023-02-19T02:33:27.637Z,7.26
2023-02-19T02:34:27.626Z,7.25
2023-02-19T02:35:27.626Z,7.24
2023-02-19T02:36:27.642Z,7.24
2023-02-19T02:37:27.628Z,7.24
2023-02-19T02:38:27.663Z,7.26
2023-02-19T02:39:27.641Z,7.27
2023-02-19T02:40:27.619Z,7.28
2023-02-19T02:41:27.770Z,7.28
2023-02-19T02:42:27.559Z,7.26
2023-02-19T02:43:27.617Z,7.25
2023-02-19T02:44:27.574Z,7.24
2023-02-19T02:45:27.538Z,7.22
2023-02-19T02:46:27.605Z,7.21
2023-02-19T02:47:27.512Z,7.19
2023-02-19T02:48:27.490Z,7.18
2023-02-19T02:49:27.524Z,7.17
2023-02-19T02:50:27.565Z,7.16
2023-02-19T02:51:27.477Z,7.16
2023-02-19T02:52:27.523Z,7.16
2023-02-19T02:53:27.433Z,7.16
2023-02-19T02:54:27.429Z,7.17
2023-02-19T02:55:27.458Z,7.17
2023-02-19T02:56:27.421Z,7.17
2023-02-19T02:57:27.398Z,7.17
2023-02-19T02:58:27.389Z,7.16
2023-02-19T02:59:27.390Z,7.15
2023-02-19T03:00:27.373Z,7.13
2023-02-19T03:01:27.454Z,7.12
2023-02-19T03:02:27.386Z,7.11
2023-02-19T03:03:27.339Z,7.11
2023-02-19T03:04:27.419Z,7.10
2023-02-19T03:05:27.356Z,7.09
2023-02-19T03:06:27.306Z,7.08
2023-02-19T03:07:27.337Z,7.08
2023-02-19T03:08:27.297Z,7.09
2023-02-19T03:09:27.282Z,7.08
2023-02-19T03:10:27.257Z,7.09
2023-02-19T03:11:27.281Z,7.09
2023-02-19T03:12:27.287Z,7.09
2023-02-19T03:13:27.224Z,7.09
2023-02-19T03:14:27.260Z,7.08
2023-02-19T03:15:27.245Z,7.07
2023-02-19T03:16:27.210Z,7.05
2023-02-19T03:17:27.194Z,7.04
2023-02-19T03:18:27.194Z,7.03
2023-02-19T03:19:27.195Z,7.01
2023-02-19T03:20:27.169Z,7.01
2023-02-19T03:21:27.344Z,7.00
2023-02-19T03:22:27.135Z,6.99
2023-02-19T03:23:27.133Z,6.99
2023-02-19T03:24:27.133Z,6.99
2023-02-19T03:25:27.127Z,6.99
2023-02-19T03:26:27.157Z,6.98
2023-02-19T03:27:27.112Z,6.98
2023-02-19T03:28:27.100Z,6.97
2023-02-19T03:29:27.128Z,6.97
2023-02-19T03:30:27.119Z,6.97
2023-02-19T03:31:27.274Z,6.97
2023-02-19T03:32:27.098Z,6.97
2023-02-19T03:33:27.048Z,6.97
2023-02-19T03:34:27.065Z,6.96
2023-02-19T03:35:27.030Z,6.94
2023-02-19T03:36:27.010Z,6.93
2023-02-19T03:37:27.014Z,6.93
2023-02-19T03:38:27.161Z,6.92
2023-02-19T03:39:26.984Z,6.92
2023-02-19T03:40:26.959Z,6.92
2023-02-19T03:41:26.985Z,6.92
2023-02-19T03:42:26.951Z,6.92
2023-02-19T03:43:26.966Z,6.93
2023-02-19T03:44:26.970Z,6.93
2023-02-19T03:45:26.931Z,6.93
2023-02-19T03:46:26.959Z,6.94
2023-02-19T03:47:26.930Z,6.95
2023-02-19T03:48:26.886Z,6.96
2023-02-19T03:49:26.991Z,6.96
2023-02-19T03:50:26.854Z,6.97
2023-02-19T03:51:26.898Z,6.97
2023-02-19T03:52:26.857Z,6.97
2023-02-19T03:53:26.869Z,6.96
2023-02-19T03:54:26.877Z,6.96
2023-02-19T03:55:26.827Z,6.95
2023-02-19T03:56:26.796Z,6.94
2023-02-19T03:57:26.817Z,6.93
2023-02-19T03:58:26.793Z,6.92
2023-02-19T03:59:26.799Z,6.91
2023-02-19T04:00:26.776Z,6.91
2023-02-19T04:01:26.786Z,6.91
2023-02-19T04:02:26.834Z,6.92
2023-02-19T04:03:26.741Z,6.93
2023-02-19T04:04:26.827Z,6.94
2023-02-19T04:05:26.760Z,6.95
2023-02-19T04:06:26.707Z,6.96
2023-02-19T04:07:26.733Z,6.97
2023-02-19T04:08:26.682Z,6.97
2023-02-19T04:09:26.704Z,6.97
2023-02-19T04:10:26.670Z,6.97
2023-02-19T04:11:26.695Z,6.96
2023-02-19T04:12:26.670Z,6.95
2023-02-19T04:13:26.645Z,6.94
2023-02-19T04:14:26.626Z,6.94
2023-02-19T04:15:26.694Z,6.93
2023-02-19T04:16:26.634Z,6.94
2023-02-19T04:17:26.629Z,6.95
2023-02-19T04:18:26.627Z,6.95
2023-02-19T04:19:26.615Z,6.95
2023-02-19T04:20:26.564Z,6.95
2023-02-19T04:21:26.605Z,6.96
2023-02-19T04:22:26.578Z,6.96
2023-02-19T04:23:26.568Z,6.95
2023-02-19T04:24:26.585Z,6.94
2023-02-19T04:25:26.553Z,6.92
2023-02-19T04:26:26.511Z,6.90
2023-02-19T04:27:26.620Z,6.87
2023-02-19T04:28:26.510Z,6.84
2023-02-19T04:29:26.491Z,6.82
2023-02-19T04:30:26.507Z,6.81
2023-02-19T04:31:26.760Z,6.79
2023-02-19T04:32:26.499Z,6.78
2023-02-19T04:33:26.529Z,6.77
2023-02-19T04:34:26.437Z,6.78
2023-02-19T04:35:26.511Z,6.79
2023-02-19T04:36:26.457Z,6.78
2023-02-19T04:37:26.429Z,6.77
2023-02-19T04:38:26.404Z,6.76
2023-02-19T04:39:26.386Z,6.77
2023-02-19T04:40:26.453Z,6.79
2023-02-19T04:41:26.368Z,6.83
2023-02-19T04:42:26.481Z,6.86
2023-02-19T04:43:26.351Z,6.89
2023-02-19T04:44:26.356Z,6.92
2023-02-19T04:45:26.329Z,6.95
2023-02-19T04:46:26.335Z,6.98
2023-02-19T04:47:26.303Z,7.01
2023-02-19T04:48:26.355Z,7.04
2023-02-19T04:49:26.338Z,7.07
2023-02-19T04:50:26.338Z,7.09
2023-02-19T04:51:26.268Z,7.09
2023-02-19T04:52:26.297Z,7.09
2023-02-19T04:53:26.265Z,7.10
2023-02-19T04:54:26.248Z,7.12
2023-02-19T04:55:26.237Z,7.13
2023-02-19T04:56:26.239Z,7.17
2023-02-19T04:57:26.223Z,7.23
2023-02-19T04:58:26.310Z,7.28
2023-02-19T04:59:26.195Z,7.33
2023-02-19T05:00:26.211Z,7.36
2023-02-19T05:01:26.177Z,7.37
2023-02-19T05:02:26.172Z,7.38
2023-02-19T05:03:26.166Z,7.38
2023-02-19T05:04:26.200Z,7.37
2023-02-19T05:05:26.121Z,7.36
2023-02-19T05:06:26.103Z,7.36
2023-02-19T05:07:26.150Z,7.37
2023-02-19T05:08:26.126Z,7.37
2023-02-19T05:09:26.082Z,7.38
2023-02-19T05:10:26.076Z,7.37
2023-02-19T05:11:26.071Z,7.35
2023-02-19T05:12:26.173Z,7.35
2023-02-19T05:13:26.096Z,7.35
2023-02-19T05:14:26.071Z,7.34
2023-02-19T05:15:26.031Z,7.33
2023-02-19T05:16:26.189Z,7.33
2023-02-19T05:17:26.043Z,7.32
2023-02-19T05:18:26.102Z,7.31
2023-02-19T05:19:25.990Z,7.30
2023-02-19T05:20:25.983Z,7.30
2023-02-19T05:21:25.980Z,7.29
2023-02-19T05:22:25.988Z,7.27
2023-02-19T05:23:25.968Z,7.26
2023-02-19T05:24:25.942Z,7.24
2023-02-19T05:25:25.941Z,7.24
2023-02-19T05:26:25.946Z,7.22
2023-02-19T05:27:25.933Z,7.20
2023-02-19T05:28:25.893Z,7.16
2023-02-19T05:29:25.901Z,7.13
2023-02-19T05:30:25.961Z,7.10
2023-02-19T05:31:25.958Z,7.06
2023-02-19T05:32:25.869Z,7.03
2023-02-19T05:33:25.900Z,7.01
2023-02-19T05:34:25.883Z,6.99
2023-02-19T05:35:25.921Z,6.98
2023-02-19T05:36:25.828Z,6.96
2023-02-19T05:37:25.819Z,6.94
2023-02-19T05:38:25.809Z,6.92
2023-02-19T05:39:25.831Z,6.91
2023-02-19T05:40:25.844Z,6.89
2023-02-19T05:41:25.782Z,6.88
2023-02-19T05:42:25.764Z,6.87
2023-02-19T05:43:25.748Z,6.85
2023-02-19T05:44:25.763Z,6.84
2023-02-19T05:45:25.724Z,6.83
2023-02-19T05:46:25.868Z,6.82
2023-02-19T05:47:25.774Z,6.81
2023-02-19T05:48:25.702Z,6.80
2023-02-19T05:49:25.690Z,6.79
2023-02-19T05:50:25.684Z,6.79
2023-02-19T05:51:25.794Z,6.79
2023-02-19T05:52:25.615Z,6.78
2023-02-19T05:53:25.673Z,6.78
2023-02-19T05:54:25.633Z,6.79
2023-02-19T05:55:25.610Z,6.79
2023-02-19T05:56:25.659Z,6.79
2023-02-19T05:57:25.577Z,6.78
2023-02-19T05:58:25.586Z,6.76
2023-02-19T05:59:25.638Z,6.73
2023-02-19T06:00:25.546Z,6.71
2023-02-19T06:01:25.524Z,6.68
2023-02-19T06:02:25.561Z,6.66
2023-02-19T06:03:25.566Z,6.65
2023-02-19T06:04:25.486Z,6.63
2023-02-19T06:05:25.480Z,6.62
2023-02-19T06:06:25.511Z,6.60
2023-02-19T06:07:25.479Z,6.58
2023-02-19T06:08:25.517Z,6.55
2023-02-19T06:09:25.631Z,6.52
2023-02-19T06:10:25.473Z,6.48
2023-02-19T06:11:25.455Z,6.45
2023-02-19T06:12:25.433Z,6.42
2023-02-19T06:13:25.439Z,6.40
2023-02-19T06:14:25.499Z,6.38
2023-02-19T06:15:25.410Z,6.36
2023-02-19T06:16:25.477Z,6.34
2023-02-19T06:17:25.358Z,6.33
2023-02-19T06:18:25.358Z,6.31
2023-02-19T06:19:25.366Z,6.30
2023-02-19T06:20:26.346Z,6.28
2023-02-19T06:21:25.408Z,6.27
2023-02-19T06:22:25.312Z,6.27
2023-02-19T06:23:25.301Z,6.26
2023-02-19T06:24:25.333Z,6.26
2023-02-19T06:25:25.302Z,6.25
2023-02-19T06:26:25.311Z,6.25
2023-02-19T06:27:25.308Z,6.25
2023-02-19T06:28:25.260Z,6.25
2023-02-19T06:29:25.264Z,6.26
2023-02-19T06:30:25.332Z,6.26
2023-02-19T06:31:25.365Z,6.26
2023-02-19T06:32:25.288Z,6.26
2023-02-19T06:33:25.210Z,6.26
2023-02-19T06:34:25.230Z,6.25
2023-02-19T06:35:25.181Z,6.25
2023-02-19T06:36:25.239Z,6.25
2023-02-19T06:37:25.204Z,6.25
2023-02-19T06:38:25.227Z,6.25
2023-02-19T06:39:25.146Z,6.25
2023-02-19T06:40:25.146Z,6.25
2023-02-19T06:41:25.276Z,6.25
2023-02-19T06:42:25.126Z,6.26
2023-02-19T06:43:25.144Z,6.27
2023-02-19T06:44:25.108Z,6.28
2023-02-19T06:45:25.111Z,6.30
2023-02-19T06:46:25.094Z,6.33
2023-02-19T06:47:25.539Z,6.34
2023-02-19T06:48:25.077Z,6.35
2023-02-19T06:49:25.045Z,6.37
2023-02-19T06:50:25.046Z,6.37
2023-02-19T06:51:25.131Z,6.38
2023-02-19T06:52:25.049Z,6.39
2023-02-19T06:53:25.125Z,6.40
2023-02-19T06:54:25.013Z,6.41
2023-02-19T06:55:25.043Z,6.42
2023-02-19T06:56:25.028Z,6.43
2023-02-19T06:57:24.995Z,6.46
2023-02-19T06:58:25.002Z,6.49
2023-02-19T06:59:24.964Z,6.51
2023-02-19T07:00:24.942Z,6.55
2023-02-19T07:01:24.969Z,6.58
2023-02-19T07:02:24.925Z,6.61
2023-02-19T07:03:24.922Z,6.63
2023-02-19T07:04:25.064Z,6.64
2023-02-19T07:05:24.972Z,6.64
2023-02-19T07:06:24.888Z,6.63
2023-02-19T07:07:24.918Z,6.63
2023-02-19T07:08:24.892Z,6.63
2023-02-19T07:09:24.876Z,6.63
2023-02-19T07:10:24.826Z,6.64
2023-02-19T07:11:24.908Z,6.65
2023-02-19T07:12:24.833Z,6.66
2023-02-19T07:13:24.966Z,6.67
2023-02-19T07:14:24.882Z,6.69
2023-02-19T07:15:24.805Z,6.72
2023-02-19T07:16:24.851Z,6.74
2023-02-19T07:17:24.763Z,6.76
2023-02-19T07:18:24.874Z,6.76
2023-02-19T07:19:24.839Z,6.75
2023-02-19T07:20:24.770Z,6.73
2023-02-19T07:21:24.744Z,6.73
2023-02-19T07:22:24.720Z,6.73
2023-02-19T07:23:24.700Z,6.73
2023-02-19T07:24:24.767Z,6.74
2023-02-19T07:25:24.714Z,6.75
2023-02-19T07:26:24.688Z,6.75
2023-02-19T07:27:24.770Z,6.74
2023-02-19T07:28:24.656Z,6.73
2023-02-19T07:29:24.782Z,6.72
2023-02-19T07:30:24.683Z,6.71
2023-02-19T07:31:24.874Z,6.70
2023-02-19T07:32:24.716Z,6.68
2023-02-19T07:33:24.631Z,6.64
2023-02-19T07:34:24.636Z,6.60
2023-02-19T07:35:24.621Z,6.54
2023-02-19T07:36:24.601Z,6.47
2023-02-19T07:37:24.606Z,6.41
2023-02-19T07:38:24.588Z,6.37
2023-02-19T07:39:24.568Z,6.32
2023-02-19T07:40:24.557Z,6.27
2023-02-19T07:41:24.549Z,6.20
2023-02-19T07:42:24.535Z,6.11
2023-02-19T07:43:24.532Z,6.03
2023-02-19T07:44:24.522Z,5.97
2023-02-19T07:45:24.671Z,5.93
2023-02-19T07:46:24.494Z,5.90
2023-02-19T07:47:24.490Z,5.89
2023-02-19T07:48:24.473Z,5.88
2023-02-19T07:49:24.471Z,5.88
2023-02-19T07:50:24.469Z,5.88
2023-02-19T07:51:24.469Z,5.88
2023-02-19T07:52:24.439Z,5.88
2023-02-19T07:53:24.493Z,5.88
2023-02-19T07:54:24.430Z,5.88
2023-02-19T07:55:24.432Z,5.87
2023-02-19T07:56:24.410Z,5.87
2023-02-19T07:57:24.416Z,5.88
2023-02-19T07:58:24.562Z,5.90
2023-02-19T07:59:24.402Z,5.93
2023-02-19T08:00:24.390Z,5.96
2023-02-19T08:01:24.376Z,5.98
2023-02-19T08:02:24.369Z,5.99
2023-02-19T08:03:24.526Z,6.01
2023-02-19T08:04:24.354Z,6.05
2023-02-19T08:05:24.321Z,6.07
2023-02-19T08:06:24.336Z,6.09
2023-02-19T08:07:24.319Z,6.12
2023-02-19T08:08:24.302Z,6.15
2023-02-19T08:09:24.253Z,6.19
2023-02-19T08:10:24.423Z,6.23
2023-02-19T08:11:24.290Z,6.27
2023-02-19T08:12:24.243Z,6.29
2023-02-19T08:13:24.239Z,6.30
2023-02-19T08:14:24.291Z,6.33
2023-02-19T08:15:24.230Z,6.35
2023-02-19T08:16:40.836Z,6.38
2023-02-19T08:17:24.257Z,6.40
2023-02-19T08:18:24.196Z,6.43
2023-02-19T08:19:24.164Z,6.46
2023-02-19T08:20:24.181Z,6.48
2023-02-19T08:21:24.165Z,6.49
2023-02-19T08:22:24.130Z,6.51
2023-02-19T08:23:24.125Z,6.53
2023-02-19T08:24:24.127Z,6.54
2023-02-19T08:25:24.096Z,6.55
2023-02-19T08:26:24.118Z,6.55
2023-02-19T08:27:24.077Z,6.55
2023-02-19T08:28:24.091Z,6.55
2023-02-19T08:29:24.083Z,6.57
2023-02-19T08:30:24.227Z,6.61
2023-02-19T08:31:24.099Z,6.65
2023-02-19T08:32:24.053Z,6.69
2023-02-19T08:33:24.065Z,6.72
2023-02-19T08:34:24.186Z,6.74
2023-02-19T08:35:24.018Z,6.74
2023-02-19T08:36:23.992Z,6.74
2023-02-19T08:37:24.034Z,6.74
2023-02-19T08:38:24.002Z,6.75
2023-02-19T08:39:23.975Z,6.76
2023-02-19T08:40:24.074Z,6.78
2023-02-19T08:41:23.945Z,6.80
2023-02-19T08:42:23.965Z,6.81
2023-02-19T08:43:23.941Z,6.80
2023-02-19T08:44:23.926Z,6.79
2023-02-19T08:45:23.915Z,6.79
2023-02-19T08:46:23.931Z,6.77
2023-02-19T08:47:23.910Z,6.76
2023-02-19T08:48:23.926Z,6.75
2023-02-19T08:49:24.006Z,6.74
2023-02-19T08:50:23.915Z,6.73
2023-02-19T08:51:23.853Z,6.74
2023-02-19T08:52:23.863Z,6.75
2023-02-19T08:53:23.826Z,6.75
2023-02-19T08:54:23.902Z,6.75
2023-02-19T08:55:23.802Z,6.75
2023-02-19T08:56:23.836Z,6.74
2023-02-19T08:57:23.789Z,6.74
2023-02-19T08:58:23.808Z,6.73
2023-02-19T08:59:23.776Z,6.74
2023-02-19T09:00:23.811Z,6.76
2023-02-19T09:01:23.918Z,6.78
2023-02-19T09:02:23.741Z,6.81
2023-02-19T09:03:23.717Z,6.83
2023-02-19T09:04:23.750Z,6.82
2023-02-19T09:05:23.718Z,6.81
2023-02-19T09:06:23.701Z,6.83
2023-02-19T09:07:23.941Z,6.87
2023-02-19T09:08:23.672Z,6.91
2023-02-19T09:09:23.666Z,6.95
2023-02-19T09:10:23.709Z,7.00
2023-02-19T09:11:23.659Z,7.04
2023-02-19T09:12:23.637Z,7.08
2023-02-19T09:13:23.817Z,7.11
2023-02-19T09:14:23.660Z,7.14
2023-02-19T09:15:23.590Z,7.17
2023-02-19T09:16:23.613Z,7.21
2023-02-19T09:17:23.577Z,7.24
2023-02-19T09:18:23.610Z,7.26
2023-02-19T09:19:23.557Z,7.28
2023-02-19T09:20:23.560Z,7.29
2023-02-19T09:21:23.551Z,7.29
2023-02-19T09:22:23.607Z,7.25
2023-02-19T09:23:23.561Z,7.21
2023-02-19T09:24:23.517Z,7.18
2023-02-19T09:25:23.531Z,7.15
2023-02-19T09:26:23.501Z,7.14
2023-02-19T09:27:23.504Z,7.13
2023-02-19T09:28:23.523Z,7.13
2023-02-19T09:29:23.469Z,7.10
2023-02-19T09:30:23.600Z,7.06
2023-02-19T09:31:23.600Z,7.02
2023-02-19T09:32:23.446Z,6.99
2023-02-19T09:33:23.455Z,7.00
2023-02-19T09:34:23.443Z,7.01
2023-02-19T09:35:23.423Z,7.01
2023-02-19T09:36:23.420Z,6.99
2023-02-19T09:37:23.378Z,6.94
2023-02-19T09:38:23.384Z,6.90
2023-02-19T09:39:23.434Z,6.89
2023-02-19T09:40:23.394Z,6.87
2023-02-19T09:41:23.404Z,6.83
2023-02-19T09:42:23.399Z,6.80
2023-02-19T09:43:23.324Z,6.79
2023-02-19T09:44:23.323Z,6.78
2023-02-19T09:45:23.399Z,6.77
2023-02-19T09:46:23.380Z,6.75
2023-02-19T09:47:23.290Z,6.73
2023-02-19T09:48:23.282Z,6.73
2023-02-19T09:49:25.125Z,6.73
2023-02-19T09:50:23.286Z,6.72
2023-02-19T09:51:23.247Z,6.73
2023-02-19T09:52:23.264Z,6.74
2023-02-19T09:53:23.224Z,6.75
2023-02-19T09:54:23.252Z,6.78
2023-02-19T09:55:23.220Z,6.81
2023-02-19T09:56:23.218Z,6.84
2023-02-19T09:57:23.199Z,6.88
2023-02-19T09:58:23.179Z,6.92
2023-02-19T09:59:23.217Z,6.96
2023-02-19T10:00:23.216Z,6.99
2023-02-19T10:01:23.148Z,7.04
2023-02-19T10:02:23.138Z,7.11
2023-02-19T10:03:23.148Z,7.27
2023-02-19T10:04:23.113Z,7.43
2023-02-19T10:05:23.148Z,7.47
2023-02-19T10:06:23.148Z,7.44
2023-02-19T10:07:23.090Z,7.39
2023-02-19T10:08:23.114Z,7.34
2023-02-19T10:09:23.070Z,7.30
2023-02-19T10:10:23.086Z,7.26
2023-02-19T10:11:23.050Z,7.24
2023-02-19T10:12:23.085Z,7.23
2023-02-19T10:13:23.056Z,7.23
2023-02-19T10:14:23.035Z,7.21
2023-02-19T10:15:23.015Z,7.21
2023-02-19T10:16:23.022Z,7.22
2023-02-19T10:17:23.026Z,7.24
2023-02-19T10:18:23.038Z,7.24
2023-02-19T10:19:23.165Z,7.22
2023-02-19T10:20:22.956Z,7.23
2023-02-19T10:21:23.093Z,7.26
2023-02-19T10:22:22.959Z,7.29
2023-02-19T10:23:22.966Z,7.30
2023-02-19T10:24:22.946Z,7.30
2023-02-19T10:25:22.922Z,7.30
2023-02-19T10:26:22.947Z,7.28
2023-02-19T10:27:22.892Z,7.26
2023-02-19T10:28:22.892Z,7.22
2023-02-19T10:29:22.922Z,7.14
2023-02-19T10:30:22.961Z,7.02
2023-02-19T10:31:22.996Z,6.90
2023-02-19T10:32:22.835Z,6.82
2023-02-19T10:33:22.824Z,6.75
2023-02-19T10:34:22.826Z,6.69
2023-02-19T10:35:22.864Z,6.63
2023-02-19T10:36:22.808Z,6.56
2023-02-19T10:37:22.799Z,6.49
2023-02-19T10:38:22.781Z,6.44
2023-02-19T10:39:22.794Z,6.40
2023-02-19T10:40:22.806Z,6.37
2023-02-19T10:41:22.850Z,6.34
2023-02-19T10:42:22.763Z,6.33
2023-02-19T10:43:22.718Z,6.33
2023-02-19T10:44:22.826Z,6.34
2023-02-19T10:45:22.740Z,6.34
2023-02-19T10:46:22.719Z,6.31
2023-02-19T10:47:22.700Z,6.27
2023-02-19T10:48:22.770Z,6.23
2023-02-19T10:49:22.722Z,6.21
2023-02-19T10:50:22.685Z,6.19
2023-02-19T10:51:22.640Z,6.20
2023-02-19T10:52:22.655Z,6.21
2023-02-19T10:53:22.636Z,6.22
2023-02-19T10:54:22.623Z,6.24
2023-02-19T10:55:22.956Z,6.27
2023-02-19T10:56:22.830Z,6.31
2023-02-19T10:57:22.608Z,6.37
2023-02-19T10:58:22.851Z,6.43
2023-02-19T10:59:22.612Z,6.51
2023-02-19T11:00:22.561Z,6.61
2023-02-19T11:01:22.731Z,6.72
2023-02-19T11:02:22.542Z,6.82
2023-02-19T11:03:22.579Z,6.87
2023-02-19T11:04:22.556Z,6.89
2023-02-19T11:05:22.526Z,6.92
2023-02-19T11:06:22.547Z,6.95
2023-02-19T11:07:22.480Z,6.94
2023-02-19T11:08:22.557Z,6.89
2023-02-19T11:09:22.480Z,6.86
2023-02-19T11:10:22.499Z,6.88
2023-02-19T11:11:22.512Z,6.93
2023-02-19T11:12:22.448Z,7.00
2023-02-19T11:13:22.553Z,7.05
2023-02-19T11:14:22.440Z,7.12
2023-02-19T11:15:22.408Z,7.21
2023-02-19T11:16:22.417Z,7.30
2023-02-19T11:17:22.383Z,7.39
2023-02-19T11:18:22.378Z,7.46
2023-02-19T11:19:22.554Z,7.55
2023-02-19T11:20:22.436Z,7.64
2023-02-19T11:21:22.349Z,7.67
2023-02-19T11:22:22.351Z,7.69
2023-02-19T11:23:22.324Z,7.69
2023-02-19T11:24:22.330Z,7.63
2023-02-19T11:25:22.319Z,7.61
2023-02-19T11:26:22.304Z,7.59
2023-02-19T11:27:22.302Z,7.53
2023-02-19T11:28:22.300Z,7.48
2023-02-19T11:29:22.312Z,7.48
2023-02-19T11:30:22.376Z,7.48
2023-02-19T11:31:22.416Z,7.49
2023-02-19T11:32:22.374Z,7.49
2023-02-19T11:33:22.311Z,7.48
2023-02-19T11:34:22.251Z,7.48
2023-02-19T11:35:22.241Z,7.49
2023-02-19T11:36:22.197Z,7.48
2023-02-19T11:37:22.277Z,7.48
2023-02-19T11:38:22.248Z,7.49
2023-02-19T11:39:22.182Z,7.52
2023-02-19T11:40:22.160Z,7.57
2023-02-19T11:41:22.191Z,7.63
2023-02-19T11:42:22.153Z,7.66
2023-02-19T11:43:22.157Z,7.66
2023-02-19T11:44:22.113Z,7.63
2023-02-19T11:45:22.143Z,7.58
2023-02-19T11:46:22.147Z,7.56
2023-02-19T11:47:22.082Z,7.60
2023-02-19T11:48:22.102Z,7.62
2023-02-19T11:49:22.079Z,7.61
2023-02-19T11:50:22.059Z,7.60
2023-02-19T11:51:22.126Z,7.59
2023-02-19T11:52:22.060Z,7.55
2023-02-19T11:53:22.086Z,7.50
2023-02-19T11:54:22.071Z,7.52
2023-02-19T11:55:22.041Z,7.57
2023-02-19T11:56:22.003Z,7.63
2023-02-19T11:57:22.039Z,7.67
2023-02-19T11:58:22.005Z,7.70
2023-02-19T11:59:21.993Z,7.72
2023-02-19T12:00:22.013Z,7.74
2023-02-19T12:01:21.985Z,7.78
2023-02-19T12:02:21.939Z,7.82
2023-02-19T12:03:21.966Z,7.84
2023-02-19T12:04:21.977Z,7.83
2023-02-19T12:05:22.019Z,7.82
2023-02-19T12:06:21.891Z,7.83
2023-02-19T12:07:23.109Z,7.85
2023-02-19T12:08:21.878Z,7.86
2023-02-19T12:09:21.861Z,7.87
2023-02-19T12:10:21.868Z,7.85
2023-02-19T12:11:21.849Z,7.83
2023-02-19T12:12:21.872Z,7.83
2023-02-19T12:13:21.876Z,7.85
2023-02-19T12:14:21.865Z,7.89
2023-02-19T12:15:21.799Z,7.89
2023-02-19T12:16:21.867Z,7.90
2023-02-19T12:17:21.788Z,7.92
2023-02-19T12:18:21.773Z,7.97
2023-02-19T12:19:21.836Z,8.09
2023-02-19T12:20:21.748Z,8.21
2023-02-19T12:21:21.761Z,8.29
2023-02-19T12:22:21.747Z,8.30
2023-02-19T12:23:21.742Z,8.26
2023-02-19T12:24:21.706Z,8.22
2023-02-19T12:25:21.707Z,8.20
2023-02-19T12:26:21.719Z,8.20
2023-02-19T12:27:21.697Z,8.18
2023-02-19T12:28:21.675Z,8.11
2023-02-19T12:29:21.686Z,8.02
2023-02-19T12:30:21.693Z,7.97
2023-02-19T12:31:21.747Z,7.92
2023-02-19T12:32:21.657Z,7.87
2023-02-19T12:33:21.651Z,7.83
2023-02-19T12:34:21.658Z,7.79
2023-02-19T12:35:21.598Z,7.74
2023-02-19T12:36:21.688Z,7.71
2023-02-19T12:37:21.577Z,7.72
2023-02-19T12:38:21.586Z,7.76
2023-02-19T12:39:21.558Z,7.75
2023-02-19T12:40:21.573Z,7.74
2023-02-19T12:41:21.582Z,7.77
2023-02-19T12:42:21.550Z,7.82
2023-02-19T12:43:21.521Z,7.87
2023-02-19T12:44:21.520Z,7.91
2023-02-19T12:45:21.511Z,7.96
2023-02-19T12:46:21.664Z,8.01
2023-02-19T12:47:21.480Z,8.02
2023-02-19T12:48:21.474Z,7.99
2023-02-19T12:49:21.482Z,7.96
2023-02-19T12:50:21.565Z,7.96
2023-02-19T12:51:21.447Z,7.96
2023-02-19T12:52:21.458Z,7.91
2023-02-19T12:53:21.416Z,7.88
2023-02-19T12:54:21.408Z,7.86
2023-02-19T12:55:21.463Z,7.82
2023-02-19T12:56:21.386Z,7.79
2023-02-19T12:57:21.421Z,7.79
2023-02-19T12:58:21.848Z,7.81
2023-02-19T12:59:21.386Z,7.84
2023-02-19T13:00:21.406Z,7.83
2023-02-19T13:01:21.418Z,7.83
2023-02-19T13:02:21.404Z,7.84
2023-02-19T13:03:21.328Z,7.84
2023-02-19T13:04:21.334Z,7.82
2023-02-19T13:05:21.325Z,7.84
2023-02-19T13:06:21.318Z,7.90
2023-02-19T13:07:21.317Z,7.95
2023-02-19T13:08:21.312Z,7.95
2023-02-19T13:09:21.284Z,7.94
2023-02-19T13:10:21.262Z,7.94
2023-02-19T13:11:21.280Z,7.94
2023-02-19T13:12:21.258Z,7.95
2023-02-19T13:13:22.789Z,7.99
2023-02-19T13:14:21.236Z,8.06
2023-02-19T13:15:21.208Z,8.23
2023-02-19T13:16:21.310Z,8.43
2023-02-19T13:17:21.211Z,8.59
2023-02-19T13:18:21.187Z,8.68
2023-02-19T13:19:21.169Z,8.77
2023-02-19T13:20:21.159Z,8.82